createdAt,value
2019-06-15T00:01:53.844Z,84.80
2019-06-15T00:04:22.639Z,86.90
2019-06-15T00:06:52.889Z,89.30
2019-06-15T00:09:22.766Z,90.30
2019-06-15T00:11:52.519Z,91.20
2019-06-15T00:14:21.325Z,92.10
2019-06-15T00:16:50.141Z,92.30
2019-06-15T00:19:19.559Z,91.60
2019-06-15T00:21:48.374Z,91.70
2019-06-15T00:24:17.155Z,92.50
2019-06-15T00:26:45.960Z,92.80
2019-06-15T00:29:14.800Z,92.90
2019-06-15T00:31:43.500Z,93.80
2019-06-15T00:34:12.239Z,93.40
2019-06-15T00:36:41.312Z,94.10
2019-06-15T00:39:10.165Z,94.00
2019-06-15T00:41:39.005Z,94.00
2019-06-15T00:44:08.360Z,93.80
2019-06-15T00:46:37.270Z,94.20
2019-06-15T00:49:06.000Z,95.00
2019-06-15T00:51:34.824Z,95.00
2019-06-15T00:54:03.747Z,95.50
2019-06-15T00:56:33.195Z,96.00
2019-06-15T00:59:02.089Z,96.30
2019-06-15T01:01:30.899Z,96.70
2019-06-15T01:03:59.701Z,96.70
2019-06-15T01:06:28.556Z,96.80
2019-06-15T01:08:57.298Z,96.80
2019-06-15T01:11:26.101Z,96.50
2019-06-15T01:13:54.897Z,96.40
2019-06-15T01:16:23.707Z,96.90
2019-06-15T01:18:52.558Z,97.20
2019-06-15T01:21:22.111Z,97.20
2019-06-15T01:23:50.970Z,97.30
2019-06-15T01:26:19.890Z,97.20
2019-06-15T01:28:48.689Z,97.10
2019-06-15T01:31:17.530Z,97.50
2019-06-15T01:33:46.290Z,97.60
2019-06-15T01:36:16.660Z,97.60
2019-06-15T01:38:45.548Z,97.20
2019-06-15T01:41:14.268Z,97.20
2019-06-15T01:43:43.055Z,97.20
2019-06-15T01:46:11.867Z,97.20
2019-06-15T01:48:40.740Z,97.10
2019-06-15T01:51:09.553Z,97.20
2019-06-15T01:53:38.829Z,97.30
2019-06-15T01:56:07.687Z,97.20
2019-06-15T01:58:37.174Z,97.20
2019-06-15T02:01:07.383Z,97.20
2019-06-15T02:03:38.668Z,96.90
2019-06-15T02:06:07.678Z,96.90
2019-06-15T02:08:36.490Z,97.10
2019-06-15T02:11:06.010Z,96.80
2019-06-15T02:13:34.791Z,96.80
2019-06-15T02:16:03.618Z,97.30
2019-06-15T02:18:32.371Z,97.00
2019-06-15T02:21:01.231Z,97.20
2019-06-15T02:23:30.076Z,97.50
2019-06-15T02:25:58.845Z,97.80
2019-06-15T02:28:27.805Z,97.90
2019-06-15T02:30:56.656Z,98.00
2019-06-15T02:33:25.524Z,97.80
2019-06-15T02:35:54.341Z,97.80
2019-06-15T02:38:23.162Z,97.90
2019-06-15T02:40:51.995Z,98.00
2019-06-15T02:43:20.808Z,98.20
2019-06-15T02:45:49.617Z,98.30
2019-06-15T02:48:18.439Z,98.50
2019-06-15T02:50:47.547Z,98.60
2019-06-15T02:53:16.356Z,98.50
2019-06-15T02:55:50.537Z,98.50
2019-06-15T02:58:15.645Z,98.70
2019-06-15T03:00:47.240Z,98.70
2019-06-15T03:03:16.390Z,98.80
2019-06-15T03:05:45.511Z,98.80
2019-06-15T03:08:14.327Z,98.90
2019-06-15T03:10:43.294Z,98.90
2019-06-15T03:13:13.486Z,99.00
2019-06-15T03:15:42.346Z,99.10
2019-06-15T03:18:11.120Z,99.10
2019-06-15T03:20:40.680Z,99.10
2019-06-15T03:23:09.410Z,99.20
2019-06-15T03:25:38.202Z,99.20
2019-06-15T03:28:07.038Z,99.20
2019-06-15T03:30:35.783Z,99.20
2019-06-15T03:33:04.982Z,99.60
2019-06-15T03:35:33.847Z,99.30
2019-06-15T03:38:02.654Z,99.40
2019-06-15T03:40:31.358Z,99.30
2019-06-15T03:43:01.117Z,99.30
2019-06-15T03:45:30.017Z,99.30
2019-06-15T03:47:59.474Z,99.40
2019-06-15T03:50:28.333Z,99.40
2019-06-15T03:52:57.304Z,99.50
2019-06-15T03:55:26.198Z,99.60
2019-06-15T03:57:54.909Z,99.70
2019-06-15T04:00:26.569Z,99.80
2019-06-15T04:02:55.291Z,99.90
2019-06-15T04:05:24.483Z,99.90
2019-06-15T04:07:53.346Z,99.90
2019-06-15T04:10:22.205Z,99.90
2019-06-15T04:12:51.006Z,99.90
2019-06-15T04:15:19.871Z,99.90
2019-06-15T04:17:48.624Z,99.90
2019-06-15T04:20:17.425Z,99.90
2019-06-15T04:22:46.243Z,99.90
2019-06-15T04:25:15.460Z,99.70
2019-06-15T04:27:44.201Z,99.20
2019-06-15T04:30:13.073Z,99.00
2019-06-15T04:32:41.908Z,99.00
2019-06-15T04:35:11.342Z,98.90
2019-06-15T04:37:40.263Z,98.90
2019-06-15T04:40:09.386Z,98.90
2019-06-15T04:42:38.861Z,98.70
2019-06-15T04:45:08.072Z,98.70
2019-06-15T04:47:36.902Z,98.60
2019-06-15T04:50:06.491Z,98.60
2019-06-15T04:52:36.683Z,98.50
2019-06-15T04:55:06.990Z,98.40
2019-06-15T04:57:35.782Z,98.40
2019-06-15T05:00:07.251Z,98.50
2019-06-15T05:02:37.965Z,97.60
2019-06-15T05:05:07.456Z,95.70
2019-06-15T05:07:36.275Z,94.00
2019-06-15T05:10:06.917Z,93.10
2019-06-15T05:12:36.035Z,92.00
2019-06-15T05:15:07.263Z,91.10
2019-06-15T05:17:36.049Z,88.70
2019-06-15T05:20:06.341Z,88.40
2019-06-15T05:22:35.148Z,87.30
2019-06-15T05:25:05.231Z,89.00
2019-06-15T05:27:33.991Z,90.30
2019-06-15T05:30:07.597Z,90.40
2019-06-15T05:32:36.381Z,89.60
2019-06-15T05:35:07.317Z,87.60
2019-06-15T05:37:36.097Z,84.40
2019-06-15T05:40:06.468Z,85.50
2019-06-15T05:42:35.327Z,85.70
2019-06-15T05:45:06.732Z,81.00
2019-06-15T05:47:35.755Z,83.00
2019-06-15T05:50:06.566Z,82.30
2019-06-15T05:52:35.584Z,80.20
2019-06-15T05:55:06.687Z,84.50
2019-06-15T05:57:35.787Z,81.30
2019-06-15T06:00:07.007Z,78.00
2019-06-15T06:02:35.799Z,73.90
2019-06-15T06:05:06.090Z,69.70
2019-06-15T06:07:55.522Z,70.80
2019-06-15T06:10:24.299Z,67.20
2019-06-15T06:12:53.153Z,69.60
2019-06-15T06:15:22.345Z,72.10
2019-06-15T06:17:51.194Z,75.40
2019-06-15T06:20:20.440Z,78.40
2019-06-15T06:22:49.430Z,78.10
2019-06-15T06:25:18.362Z,77.70
2019-06-15T06:27:47.204Z,77.10
2019-06-15T06:30:16.671Z,77.60
2019-06-15T06:32:45.443Z,76.00
2019-06-15T06:35:14.585Z,75.00
2019-06-15T06:37:43.265Z,74.40
2019-06-15T06:40:13.854Z,69.80
2019-06-15T06:42:42.579Z,65.50
2019-06-15T06:45:12.293Z,62.30
2019-06-15T06:47:41.391Z,60.30
2019-06-15T06:50:11.188Z,59.30
2019-06-15T06:52:40.078Z,57.40
2019-06-15T06:55:09.356Z,52.50
2019-06-15T06:57:51.276Z,49.40
2019-06-15T07:00:09.415Z,43.80
2019-06-15T07:02:38.286Z,45.70
2019-06-15T07:05:08.527Z,44.30
2019-06-15T07:07:37.568Z,44.70
2019-06-15T07:10:08.081Z,45.80
2019-06-15T07:12:37.027Z,42.30
2019-06-15T07:15:07.086Z,35.00
2019-06-15T07:17:35.983Z,36.00
2019-06-15T07:20:07.073Z,37.90
2019-06-15T07:22:35.889Z,42.90
2019-06-15T07:25:06.113Z,44.00
2019-06-15T07:27:34.976Z,45.80
2019-06-15T07:30:10.012Z,47.40
2019-06-15T07:32:37.597Z,49.50
2019-06-15T07:35:08.921Z,50.00
2019-06-15T07:37:37.832Z,45.90
2019-06-15T07:40:07.027Z,41.70
2019-06-15T07:42:38.953Z,39.80
2019-06-15T07:45:07.985Z,37.20
2019-06-15T07:47:37.168Z,42.40
2019-06-15T07:50:07.452Z,47.90
2019-06-15T07:52:36.167Z,51.10
2019-06-15T07:55:07.641Z,56.10
2019-06-15T07:57:36.495Z,60.30
2019-06-15T08:00:08.204Z,63.80
2019-06-15T08:02:36.930Z,67.70
2019-06-15T08:05:07.355Z,70.80
2019-06-15T08:07:36.485Z,72.80
2019-06-15T08:10:07.261Z,75.00
2019-06-15T08:12:36.144Z,75.20
2019-06-15T08:15:06.918Z,75.00
2019-06-15T08:17:36.160Z,75.70
2019-06-15T08:20:08.617Z,77.50
2019-06-15T08:22:37.705Z,79.50
2019-06-15T08:25:09.902Z,82.10
2019-06-15T08:27:39.092Z,82.40
2019-06-15T08:30:09.614Z,83.00
2019-06-15T08:32:39.261Z,86.50
2019-06-15T08:35:14.542Z,88.50
2019-06-15T08:37:43.617Z,90.50
2019-06-15T08:40:12.755Z,91.40
2019-06-15T08:42:41.914Z,91.30
2019-06-15T08:45:12.430Z,91.40
2019-06-15T08:47:41.179Z,92.50
2019-06-15T08:50:12.164Z,92.40
2019-06-15T08:52:40.974Z,92.90
2019-06-15T08:55:10.063Z,92.30
2019-06-15T08:57:40.513Z,92.30
2019-06-15T09:00:10.183Z,91.90
2019-06-15T09:02:39.505Z,91.90
2019-06-15T09:05:08.942Z,91.40
2019-06-15T09:07:37.725Z,88.00
2019-06-15T09:10:08.726Z,86.80
2019-06-15T09:12:37.795Z,68.20
2019-06-15T09:15:09.699Z,56.20
2019-06-15T09:17:38.483Z,43.70
2019-06-15T09:20:08.512Z,32.50
2019-06-15T09:22:37.331Z,35.40
2019-06-15T09:25:06.687Z,38.30
2019-06-15T09:27:35.439Z,42.40
2019-06-15T09:30:05.943Z,45.10
2019-06-15T09:32:34.871Z,45.10
2019-06-15T09:35:05.485Z,48.00
2019-06-15T09:37:34.304Z,44.60
2019-06-15T09:40:03.991Z,37.80
2019-06-15T09:42:32.885Z,36.90
2019-06-15T09:45:01.793Z,36.20
2019-06-15T09:47:30.606Z,37.50
2019-06-15T09:50:01.189Z,40.50
2019-06-15T09:52:30.113Z,37.80
2019-06-15T09:54:58.917Z,32.70
2019-06-15T09:57:27.802Z,32.00
2019-06-15T09:59:56.519Z,29.00
2019-06-15T10:02:25.438Z,32.40
2019-06-15T10:04:54.294Z,35.10
2019-06-15T10:07:23.214Z,37.50
2019-06-15T10:09:52.046Z,39.00
2019-06-15T10:12:20.852Z,41.20
2019-06-15T10:14:49.692Z,47.10
2019-06-15T10:17:18.562Z,56.90
2019-06-15T10:19:47.319Z,58.00
2019-06-15T10:22:16.075Z,59.80
2019-06-15T10:24:44.971Z,61.20
2019-06-15T10:27:13.752Z,66.50
2019-06-15T10:29:42.639Z,69.50
2019-06-15T10:32:11.515Z,75.70
2019-06-15T10:34:40.410Z,81.90
2019-06-15T10:37:09.131Z,84.50
2019-06-15T10:39:37.893Z,87.30
2019-06-15T10:42:06.823Z,89.00
2019-06-15T10:44:35.571Z,88.80
2019-06-15T10:47:04.538Z,87.30
2019-06-15T10:49:33.365Z,88.10
2019-06-15T10:52:02.178Z,88.20
2019-06-15T10:54:31.067Z,86.20
2019-06-15T10:56:59.996Z,84.10
2019-06-15T10:59:28.826Z,75.60
2019-06-15T11:01:57.728Z,70.70
2019-06-15T11:04:26.424Z,61.10
2019-06-15T11:06:55.054Z,57.90
2019-06-15T11:09:24.137Z,43.80
2019-06-15T11:11:52.963Z,43.60
2019-06-15T11:14:21.735Z,44.90
2019-06-15T11:16:50.533Z,47.50
2019-06-15T11:19:19.307Z,50.10
2019-06-15T11:21:48.104Z,51.90
2019-06-15T11:24:16.992Z,49.00
2019-06-15T11:26:45.994Z,48.10
2019-06-15T11:29:14.890Z,47.20
2019-06-15T11:31:43.876Z,44.10
2019-06-15T11:34:12.827Z,34.80
2019-06-15T11:36:41.592Z,30.70
2019-06-15T11:39:10.885Z,30.80
2019-06-15T11:41:41.433Z,29.30
2019-06-15T11:44:10.261Z,28.50
2019-06-15T11:46:38.980Z,28.40
2019-06-15T11:49:07.949Z,32.00
2019-06-15T11:51:36.792Z,34.60
2019-06-15T11:54:05.529Z,38.50
2019-06-15T11:56:34.698Z,39.10
2019-06-15T11:59:03.500Z,39.70
2019-06-15T12:01:32.346Z,34.30
2019-06-15T12:04:01.165Z,27.80
2019-06-15T12:06:29.918Z,25.00
2019-06-15T12:08:58.795Z,23.00
2019-06-15T12:11:27.674Z,19.40
2019-06-15T12:13:56.625Z,18.30
2019-06-15T12:16:25.932Z,16.40
2019-06-15T12:18:54.751Z,15.40
2019-06-15T12:21:23.571Z,14.80
2019-06-15T12:23:52.476Z,18.20
2019-06-15T12:26:21.580Z,19.80
2019-06-15T12:28:50.645Z,23.20
2019-06-15T12:31:21.523Z,26.60
2019-06-15T12:33:50.495Z,24.70
2019-06-15T12:36:27.938Z,20.20
2019-06-15T12:38:56.583Z,20.00
2019-06-15T12:41:25.438Z,17.00
2019-06-15T12:43:54.299Z,14.20
2019-06-15T12:46:23.368Z,11.00
2019-06-15T12:48:52.194Z,10.70
2019-06-15T12:51:20.987Z,12.10
2019-06-15T12:53:49.868Z,12.10
2019-06-15T12:56:18.654Z,12.00
2019-06-15T12:58:48.074Z,9.00
2019-06-15T13:01:16.952Z,10.50
2019-06-15T13:03:45.757Z,10.40
2019-06-15T13:06:14.629Z,9.20
2019-06-15T13:08:43.678Z,9.20
2019-06-15T13:11:12.370Z,9.50
2019-06-15T13:13:41.415Z,8.70
2019-06-15T13:16:10.287Z,7.80
2019-06-15T13:18:39.088Z,8.00
2019-06-15T13:21:07.992Z,7.20
2019-06-15T13:23:36.812Z,7.90
2019-06-15T13:26:05.586Z,8.60
2019-06-15T13:28:34.385Z,8.70
2019-06-15T13:31:17.317Z,8.20
2019-06-15T13:33:35.817Z,6.60
2019-06-15T13:36:04.726Z,6.70
2019-06-15T13:38:33.579Z,7.10
2019-06-15T13:41:02.416Z,8.40
2019-06-15T13:43:31.380Z,9.80
2019-06-15T13:46:00.270Z,8.20
2019-06-15T13:48:29.464Z,8.30
2019-06-15T13:50:58.256Z,6.60
2019-06-15T13:53:27.307Z,5.80
2019-06-15T13:55:57.155Z,6.30
2019-06-15T13:58:25.954Z,5.20
2019-06-15T14:00:54.907Z,4.80
2019-06-15T14:03:23.746Z,4.80
2019-06-15T14:05:52.510Z,5.10
2019-06-15T14:08:21.378Z,5.10
2019-06-15T14:10:50.171Z,4.90
2019-06-15T14:13:19.028Z,5.50
2019-06-15T14:15:47.864Z,5.10
2019-06-15T14:18:16.623Z,6.60
2019-06-15T14:20:45.390Z,6.80
2019-06-15T14:23:14.148Z,6.30
2019-06-15T14:25:42.944Z,5.60
2019-06-15T14:28:11.635Z,6.00
2019-06-15T14:30:40.636Z,7.00
2019-06-15T14:33:09.418Z,6.80
2019-06-15T14:35:38.162Z,7.60
2019-06-15T14:38:07.044Z,8.50
2019-06-15T14:40:37.363Z,9.40
2019-06-15T14:43:06.304Z,8.50
2019-06-15T14:45:35.054Z,9.30
2019-06-15T14:48:04.940Z,9.60
2019-06-15T14:50:33.918Z,10.00
2019-06-15T14:53:02.732Z,9.90
2019-06-15T14:55:31.472Z,9.70
2019-06-15T14:58:00.397Z,11.30
2019-06-15T15:00:29.259Z,11.20
2019-06-15T15:02:58.005Z,10.00
2019-06-15T15:05:27.577Z,10.10
2019-06-15T15:07:56.852Z,10.00
2019-06-15T15:10:26.710Z,9.30
2019-06-15T15:12:56.694Z,9.80
2019-06-15T15:15:25.811Z,9.70
2019-06-15T15:17:57.719Z,8.90
2019-06-15T15:20:26.991Z,8.30
2019-06-15T15:22:56.887Z,8.60
2019-06-15T15:25:26.276Z,7.70
2019-06-15T15:27:57.136Z,8.20
2019-06-15T15:30:28.820Z,8.50
2019-06-15T15:32:57.574Z,8.00
2019-06-15T15:35:27.012Z,8.40
2019-06-15T15:37:56.711Z,9.10
2019-06-15T15:40:27.422Z,9.30
2019-06-15T15:42:56.549Z,9.70
2019-06-15T15:45:26.262Z,9.80
2019-06-15T15:47:55.330Z,10.20
2019-06-15T15:50:26.312Z,10.40
2019-06-15T15:52:56.754Z,10.60
2019-06-15T15:55:26.498Z,10.60
2019-06-15T15:57:56.363Z,10.40
2019-06-15T16:00:28.142Z,10.80
2019-06-15T16:02:57.134Z,11.20
2019-06-15T16:05:26.600Z,11.30
2019-06-15T16:07:56.952Z,11.40
2019-06-15T16:10:26.749Z,11.00
2019-06-15T16:12:56.855Z,11.50
2019-06-15T16:15:26.558Z,9.80
2019-06-15T16:17:56.315Z,10.00
2019-06-15T16:20:26.417Z,9.80
2019-06-15T16:22:56.382Z,10.40
2019-06-15T16:25:26.673Z,9.60
2019-06-15T16:27:56.627Z,10.50
2019-06-15T16:30:48.317Z,11.80
2019-06-15T16:33:03.556Z,11.70
2019-06-15T16:35:29.781Z,12.60
2019-06-15T16:37:58.611Z,13.50
2019-06-15T16:40:30.225Z,13.50
2019-06-15T16:42:59.205Z,14.00
2019-06-15T16:45:27.907Z,15.10
2019-06-15T16:47:58.004Z,15.60
2019-06-15T16:50:26.770Z,16.00
2019-06-15T16:52:56.108Z,15.60
2019-06-15T16:55:26.031Z,15.60
2019-06-15T16:57:56.696Z,15.50
2019-06-15T17:00:27.596Z,15.50
2019-06-15T17:02:57.203Z,16.00
2019-06-15T17:05:27.456Z,15.70
2019-06-15T17:07:56.661Z,16.20
2019-06-15T17:10:28.327Z,16.20
2019-06-15T17:12:57.405Z,16.70
2019-06-15T17:15:26.489Z,16.30
2019-06-15T17:17:56.317Z,16.40
2019-06-15T17:20:36.036Z,17.10
2019-06-15T17:23:06.659Z,17.70
2019-06-15T17:25:36.252Z,17.60
2019-06-15T17:28:05.369Z,17.70
2019-06-15T17:30:37.245Z,17.30
2019-06-15T17:33:08.408Z,17.20
2019-06-15T17:35:36.658Z,16.70
2019-06-15T17:38:05.537Z,16.30
2019-06-15T17:40:36.480Z,15.60
2019-06-15T17:43:06.597Z,14.80
2019-06-15T17:45:37.510Z,14.30
2019-06-15T17:48:06.640Z,14.30
2019-06-15T17:50:38.612Z,14.60
2019-06-15T17:53:07.484Z,14.80
2019-06-15T17:55:37.181Z,14.20
2019-06-15T17:58:06.911Z,14.60
2019-06-15T18:00:38.779Z,14.30
2019-06-15T18:03:07.857Z,14.00
2019-06-15T18:05:37.035Z,13.20
2019-06-15T18:08:06.716Z,12.60
2019-06-15T18:10:36.261Z,12.50
2019-06-15T18:13:07.077Z,11.90
2019-06-15T18:15:36.309Z,9.90
2019-06-15T18:18:07.114Z,9.80
2019-06-15T18:20:36.495Z,9.80
2019-06-15T18:23:06.148Z,10.10
2019-06-15T18:25:37.208Z,11.00
2019-06-15T18:28:06.422Z,11.30
2019-06-15T18:30:37.191Z,11.90
2019-06-15T18:33:07.049Z,12.30
2019-06-15T18:35:36.343Z,13.00
2019-06-15T18:38:07.862Z,12.70
2019-06-15T18:40:41.054Z,12.80
2019-06-15T18:43:09.805Z,13.90
2019-06-15T18:45:38.623Z,13.20
2019-06-15T18:48:07.316Z,13.40
2019-06-15T18:50:38.501Z,13.90
2019-06-15T18:53:07.894Z,14.50
2019-06-15T18:55:36.955Z,13.70
2019-06-15T18:58:06.081Z,13.50
2019-06-15T19:00:37.025Z,13.90
2019-06-15T19:03:06.893Z,13.90
2019-06-15T19:05:37.321Z,14.10
2019-06-15T19:08:06.855Z,14.50
2019-06-15T19:10:37.576Z,14.90
2019-06-15T19:13:07.381Z,15.30
2019-06-15T19:15:37.463Z,16.00
2019-06-15T19:18:07.393Z,16.30
2019-06-15T19:20:37.405Z,16.30
2019-06-15T19:23:07.151Z,16.60
2019-06-15T19:25:36.671Z,17.50
2019-06-15T19:28:05.996Z,17.70
2019-06-15T19:30:37.380Z,18.40
2019-06-15T19:33:05.980Z,18.50
2019-06-15T19:35:36.344Z,18.90
2019-06-15T19:38:06.508Z,19.10
2019-06-15T19:40:37.901Z,19.80
2019-06-15T19:43:06.737Z,20.30
2019-06-15T19:45:37.096Z,21.10
2019-06-15T19:48:06.753Z,21.60
2019-06-15T19:50:36.450Z,22.00
2019-06-15T19:53:07.031Z,22.40
2019-06-15T19:55:36.446Z,23.40
2019-06-15T19:58:07.198Z,23.10
2019-06-15T20:00:36.673Z,23.60
2019-06-15T20:03:07.025Z,24.20
2019-06-15T20:05:37.184Z,24.00
2019-06-15T20:08:07.052Z,24.90
2019-06-15T20:10:37.193Z,25.50
2019-06-15T20:13:07.139Z,25.50
2019-06-15T20:15:37.775Z,26.00
2019-06-15T20:18:09.773Z,26.50
2019-06-15T20:20:39.465Z,26.80
2019-06-15T20:23:08.308Z,27.90
2019-06-15T20:25:37.399Z,28.70
2019-06-15T20:28:07.177Z,29.50
2019-06-15T20:30:37.026Z,30.90
2019-06-15T20:33:07.816Z,32.40
2019-06-15T20:35:37.094Z,32.40
2019-06-15T20:38:05.930Z,33.70
2019-06-15T20:40:36.595Z,34.80
2019-06-15T20:43:07.583Z,35.60
2019-06-15T20:45:37.123Z,35.50
2019-06-15T20:48:06.859Z,34.70
2019-06-15T20:50:36.343Z,35.70
2019-06-15T20:53:06.179Z,37.60
2019-06-15T20:55:37.239Z,38.70
2019-06-15T20:58:06.425Z,39.20
2019-06-15T21:00:36.715Z,39.50
2019-06-15T21:03:06.842Z,41.40
2019-06-15T21:05:41.597Z,42.30
2019-06-15T21:08:07.140Z,42.20
2019-06-15T21:10:37.287Z,43.50
2019-06-15T21:13:06.434Z,43.70
2019-06-15T21:15:38.047Z,44.10
2019-06-15T21:18:06.954Z,46.80
2019-06-15T21:20:36.330Z,46.50
2019-06-15T21:23:06.608Z,47.20
2019-06-15T21:25:35.602Z,49.30
2019-06-15T21:28:06.651Z,48.10
2019-06-15T21:30:36.851Z,49.20
2019-06-15T21:33:07.000Z,50.10
2019-06-15T21:35:48.553Z,49.70
2019-06-15T21:38:06.778Z,51.50
2019-06-15T21:40:36.762Z,53.00
2019-06-15T21:43:07.067Z,55.00
2019-06-15T21:45:37.011Z,55.90
2019-06-15T21:48:06.750Z,57.10
2019-06-15T21:50:36.511Z,57.70
2019-06-15T21:53:16.032Z,59.10
2019-06-15T21:55:46.886Z,61.60
2019-06-15T21:58:16.691Z,61.50
2019-06-15T22:00:48.717Z,61.60
2019-06-15T22:03:17.679Z,62.20
2019-06-15T22:05:59.779Z,62.80
2019-06-15T22:08:17.201Z,64.80
2019-06-15T22:10:46.135Z,66.30
2019-06-15T22:13:16.024Z,68.30
2019-06-15T22:15:46.596Z,70.60
2019-06-15T22:18:16.428Z,70.90
2019-06-15T22:20:47.071Z,70.70
2019-06-15T22:23:16.578Z,70.90
2019-06-15T22:25:46.499Z,71.00
2019-06-15T22:28:16.375Z,70.80
2019-06-15T22:30:46.180Z,71.10
2019-06-15T22:33:16.472Z,71.40
2019-06-15T22:35:47.478Z,70.90
2019-06-15T22:38:16.060Z,71.00
2019-06-15T22:40:46.902Z,70.80
2019-06-15T22:43:16.759Z,71.40
2019-06-15T22:45:49.753Z,71.90
2019-06-15T22:48:16.573Z,70.90
2019-06-15T22:50:46.806Z,70.90
2019-06-15T22:53:16.486Z,70.30
2019-06-15T22:55:46.341Z,69.40
2019-06-15T22:58:17.831Z,69.00
2019-06-15T23:00:46.914Z,69.20
2019-06-15T23:03:16.857Z,69.00
2019-06-15T23:05:46.339Z,68.80
2019-06-15T23:08:16.373Z,69.10
2019-06-15T23:10:46.806Z,68.50
2019-06-15T23:13:16.216Z,67.60
2019-06-15T23:15:47.013Z,67.10
2019-06-15T23:18:17.170Z,66.50
2019-06-15T23:20:46.344Z,66.80
2019-06-15T23:23:16.143Z,66.70
2019-06-15T23:25:47.256Z,66.80
2019-06-15T23:28:16.518Z,68.00
2019-06-15T23:30:47.286Z,68.20
2019-06-15T23:33:17.232Z,67.30
2019-06-15T23:35:47.917Z,66.20
2019-06-15T23:38:16.786Z,65.90
2019-06-15T23:40:46.667Z,65.90
2019-06-15T23:43:16.713Z,65.50
2019-06-15T23:45:46.880Z,66.20
2019-06-15T23:48:16.187Z,66.60
2019-06-15T23:50:46.291Z,66.70
2019-06-15T23:53:16.923Z,66.50
2019-06-15T23:55:47.268Z,66.40
2019-06-15T23:58:17.540Z,66.70
